createdAt,value
2018-12-17T00:02:41.844Z,13.27
2018-12-17T00:06:47.244Z,15.43
2018-12-17T00:10:52.234Z,14.17
2018-12-17T00:14:57.239Z,14.70
2018-12-17T00:19:02.168Z,14.43
2018-12-17T00:23:07.211Z,15.33
2018-12-17T00:27:12.174Z,15.73
2018-12-17T00:31:17.056Z,15.30
2018-12-17T00:35:21.970Z,15.40
2018-12-17T00:39:26.924Z,15.30
2018-12-17T00:47:44.150Z,15.37
2018-12-17T00:51:49.072Z,15.20
2018-12-17T00:55:53.954Z,13.50
2018-12-17T00:59:58.910Z,14.77
2018-12-17T01:04:03.855Z,13.67
2018-12-17T01:08:08.869Z,14.57
2018-12-17T01:12:13.859Z,14.77
2018-12-17T01:16:18.768Z,15.63
2018-12-17T01:20:23.750Z,14.50
2018-12-17T01:24:28.735Z,14.63
2018-12-17T01:32:45.930Z,15.63
2018-12-17T01:36:50.851Z,15.47
2018-12-17T01:45:08.039Z,16.40
2018-12-17T01:49:12.989Z,15.10
2018-12-17T01:53:17.861Z,15.70
2018-12-17T01:57:22.829Z,14.67
2018-12-17T02:01:27.826Z,14.40
2018-12-17T02:05:32.763Z,15.60
2018-12-17T02:09:37.681Z,14.87
2018-12-17T02:13:42.635Z,15.60
2018-12-17T02:17:47.624Z,15.70
2018-12-17T02:21:52.568Z,14.43
2018-12-17T02:25:57.502Z,15.03
2018-12-17T02:30:02.422Z,14.80
2018-12-17T02:34:07.732Z,15.00
2018-12-17T02:38:12.633Z,14.80
2018-12-17T02:42:17.495Z,14.97
2018-12-17T02:46:22.428Z,14.57
2018-12-17T02:50:27.317Z,14.67
2018-12-17T02:54:32.294Z,14.33
2018-12-17T02:58:43.854Z,16.87
2018-12-17T03:02:44.027Z,16.07
2018-12-17T03:06:48.937Z,15.07
2018-12-17T03:10:54.845Z,15.27
2018-12-17T03:14:59.774Z,15.03
2018-12-17T03:19:04.694Z,15.70
2018-12-17T03:23:09.611Z,15.30
2018-12-17T03:27:14.569Z,14.77
2018-12-17T03:31:19.497Z,15.23
2018-12-17T03:35:24.464Z,14.67
2018-12-17T03:39:29.395Z,15.37
2018-12-17T03:43:34.297Z,14.33
2018-12-17T03:47:39.282Z,13.80
2018-12-17T03:51:44.181Z,15.00
2018-12-17T03:55:49.123Z,16.17
2018-12-17T03:59:54.055Z,14.83
2018-12-17T04:04:06.209Z,14.43
2018-12-17T04:08:11.080Z,14.40
2018-12-17T04:12:16.365Z,14.83
2018-12-17T04:16:21.291Z,14.27
2018-12-17T04:20:26.239Z,14.50
2018-12-17T04:24:31.207Z,15.30
2018-12-17T04:28:36.166Z,14.90
2018-12-17T04:32:41.421Z,15.47
2018-12-17T04:36:46.298Z,14.57
2018-12-17T04:40:51.228Z,15.40
2018-12-17T04:44:56.124Z,14.97
2018-12-17T04:49:01.127Z,14.10
2018-12-17T04:53:06.150Z,14.03
2018-12-17T05:01:54.135Z,13.60
2018-12-17T05:05:59.009Z,14.10
2018-12-17T05:10:03.960Z,14.80
2018-12-17T05:14:08.843Z,13.43
2018-12-17T05:18:13.881Z,15.03
2018-12-17T05:26:50.095Z,15.37
2018-12-17T05:30:55.049Z,14.13
2018-12-17T05:34:59.986Z,14.73
2018-12-17T05:39:16.556Z,12.60
2018-12-17T05:43:21.466Z,13.40
2018-12-17T05:47:26.336Z,15.33
2018-12-17T05:51:31.303Z,14.13
2018-12-17T05:55:36.200Z,13.87
2018-12-17T05:59:41.476Z,14.23
2018-12-17T06:03:46.450Z,13.53
2018-12-17T06:07:51.375Z,15.10
2018-12-17T06:11:56.280Z,13.97
2018-12-17T06:16:01.193Z,15.10
2018-12-17T06:20:06.442Z,14.17
2018-12-17T06:24:11.303Z,14.03
2018-12-17T06:28:16.207Z,13.93
2018-12-17T06:32:21.115Z,14.87
2018-12-17T06:36:26.034Z,16.00
2018-12-17T06:40:30.962Z,14.33
2018-12-17T06:44:35.956Z,14.53
2018-12-17T06:48:40.845Z,14.37
2018-12-17T06:52:45.820Z,15.33
2018-12-17T06:56:50.742Z,14.67
2018-12-17T07:00:55.717Z,14.53
2018-12-17T07:05:00.625Z,14.97
2018-12-17T07:09:06.613Z,14.37
2018-12-17T07:13:11.568Z,14.50
2018-12-17T07:17:16.520Z,14.83
2018-12-17T07:21:21.451Z,14.93
2018-12-17T07:25:26.365Z,15.40
2018-12-17T07:29:31.336Z,14.53
2018-12-17T07:33:36.185Z,14.70
2018-12-17T07:37:41.072Z,15.87
2018-12-17T07:41:46.084Z,15.53
2018-12-17T07:50:01.989Z,13.77
2018-12-17T07:54:06.919Z,15.07
2018-12-17T07:58:11.863Z,15.17
2018-12-17T08:02:16.837Z,14.47
2018-12-17T08:06:21.829Z,14.83
2018-12-17T08:10:26.693Z,14.53
2018-12-17T08:14:31.613Z,15.23
2018-12-17T08:18:36.522Z,13.73
2018-12-17T08:26:53.561Z,15.27
2018-12-17T08:30:58.520Z,15.43
2018-12-17T08:35:03.457Z,14.70
2018-12-17T08:39:09.451Z,14.20
2018-12-17T08:43:31.226Z,15.10
2018-12-17T08:47:24.165Z,14.73
2018-12-17T08:51:28.983Z,15.30
2018-12-17T08:55:33.825Z,13.67
2018-12-17T08:59:38.690Z,14.40
2018-12-17T09:03:43.485Z,14.13
2018-12-17T09:07:48.297Z,13.27
2018-12-17T09:11:53.137Z,14.43
2018-12-17T09:15:58.014Z,15.63
2018-12-17T09:20:02.918Z,13.93
2018-12-17T09:28:31.847Z,14.17
2018-12-17T09:32:36.793Z,13.97
2018-12-17T09:36:41.712Z,13.97
2018-12-17T09:40:46.808Z,14.57
2018-12-17T09:44:51.654Z,12.27
2018-12-17T09:48:56.595Z,13.57
2018-12-17T09:53:01.470Z,14.17
2018-12-17T09:57:06.485Z,14.07
2018-12-17T10:01:11.339Z,13.43
2018-12-17T10:05:16.266Z,13.93
2018-12-17T10:14:14.609Z,15.17
2018-12-17T10:18:19.605Z,14.03
2018-12-17T10:26:36.522Z,15.47
2018-12-17T10:30:41.435Z,14.60
2018-12-17T10:43:19.147Z,16.47
2018-12-17T10:47:23.949Z,16.63
2018-12-17T10:51:28.821Z,16.03
2018-12-17T10:55:33.631Z,15.43
2018-12-17T10:59:38.407Z,15.60
2018-12-17T11:04:01.989Z,16.23
2018-12-17T11:08:06.950Z,15.37
2018-12-17T11:12:11.824Z,16.33
2018-12-17T11:16:17.040Z,16.97
2018-12-17T11:20:21.937Z,16.93
2018-12-17T11:24:27.057Z,15.57
2018-12-17T11:28:32.005Z,15.67
2018-12-17T11:37:02.769Z,16.30
2018-12-17T11:41:07.756Z,15.47
2018-12-17T11:45:12.725Z,16.50
2018-12-17T11:49:17.641Z,16.37
2018-12-17T11:53:22.566Z,16.17
2018-12-17T11:58:05.243Z,16.20
2018-12-17T12:02:10.214Z,16.10
2018-12-17T12:06:34.044Z,15.80
2018-12-17T12:10:39.013Z,17.73
2018-12-17T12:15:02.797Z,17.53
2018-12-17T12:19:26.586Z,17.93
2018-12-17T12:23:31.506Z,17.17
2018-12-17T12:27:55.323Z,15.70
2018-12-17T12:32:19.196Z,15.97
2018-12-17T12:36:25.445Z,17.30
2018-12-17T12:40:30.313Z,17.17
2018-12-17T12:44:54.099Z,17.37
2018-12-17T12:49:03.877Z,17.37
2018-12-17T12:53:08.877Z,18.47
2018-12-17T12:57:19.809Z,19.40
2018-12-17T13:01:26.892Z,19.83
2018-12-17T13:05:50.663Z,18.57
2018-12-17T13:09:55.590Z,20.87
2018-12-17T13:14:19.334Z,18.67
2018-12-17T13:18:43.083Z,20.53
2018-12-17T13:22:51.236Z,20.10
2018-12-17T13:26:56.213Z,19.20
2018-12-17T13:31:02.989Z,20.37
2018-12-17T13:35:11.175Z,20.27
2018-12-17T13:39:19.459Z,19.73
2018-12-17T13:43:24.356Z,20.53
2018-12-17T13:47:48.103Z,19.93
2018-12-17T13:52:13.506Z,20.70
2018-12-17T13:56:18.402Z,19.60
2018-12-17T14:00:42.169Z,19.73
2018-12-17T14:04:48.460Z,19.97
2018-12-17T14:08:53.380Z,20.40
2018-12-17T14:13:17.433Z,19.17
2018-12-17T14:17:40.838Z,19.20
2018-12-17T14:22:07.988Z,19.93
2018-12-17T14:26:13.237Z,19.80
2018-12-17T14:30:37.241Z,21.10
2018-12-17T14:35:01.303Z,20.27
2018-12-17T14:39:09.935Z,19.63
2018-12-17T14:43:14.825Z,21.07
2018-12-17T14:47:38.563Z,20.83
2018-12-17T14:51:44.871Z,19.83
2018-12-17T14:55:49.852Z,22.73
2018-12-17T15:00:13.719Z,19.93
2018-12-17T15:04:21.835Z,19.57
2018-12-17T15:08:26.775Z,19.53
2018-12-17T15:12:50.455Z,19.10
2018-12-17T15:17:14.208Z,20.00
2018-12-17T15:21:24.124Z,20.97
2018-12-17T15:25:29.062Z,19.00
2018-12-17T15:29:52.951Z,21.60
2018-12-17T15:33:59.157Z,19.77
2018-12-17T15:38:22.864Z,20.67
2018-12-17T15:42:27.849Z,19.43
2018-12-17T15:46:51.612Z,21.80
2018-12-17T15:51:15.425Z,20.57
2018-12-17T15:55:20.293Z,22.00
2018-12-17T15:59:44.175Z,21.60
2018-12-17T16:04:07.933Z,21.63
2018-12-17T16:08:12.897Z,22.20
2018-12-17T16:12:36.642Z,23.27
2018-12-17T16:16:42.994Z,22.23
2018-12-17T16:21:06.776Z,23.47
2018-12-17T16:25:20.904Z,25.47
2018-12-17T16:29:25.866Z,23.53
2018-12-17T16:33:49.576Z,22.87
2018-12-17T16:38:13.302Z,22.40
2018-12-17T16:42:18.277Z,21.93
2018-12-17T16:46:42.072Z,20.90
2018-12-17T16:51:05.771Z,20.20
2018-12-17T16:55:12.428Z,21.37
2018-12-17T16:59:17.280Z,18.07
2018-12-17T17:03:41.936Z,19.07
2018-12-17T17:08:05.729Z,19.53
2018-12-17T17:12:11.965Z,19.87
2018-12-17T17:16:16.902Z,19.30
2018-12-17T17:20:40.724Z,18.47
2018-12-17T17:24:47.261Z,18.60
2018-12-17T17:28:52.307Z,19.50
2018-12-17T17:33:16.062Z,19.23
2018-12-17T17:37:39.961Z,19.13
2018-12-17T17:41:44.973Z,21.07
2018-12-17T17:45:49.961Z,22.30
2018-12-17T17:49:54.884Z,20.23
2018-12-17T17:54:18.709Z,19.70
2018-12-17T17:58:42.548Z,20.43
2018-12-17T18:02:50.553Z,21.63
2018-12-17T18:07:14.676Z,21.73
2018-12-17T18:11:20.990Z,21.97
2018-12-17T18:15:26.022Z,20.50
2018-12-17T18:19:31.011Z,21.43
2018-12-17T18:23:36.024Z,22.47
2018-12-17T18:27:41.041Z,21.33
2018-12-17T18:31:45.931Z,20.80
2018-12-17T18:36:09.659Z,19.73
2018-12-17T18:40:14.458Z,21.40
2018-12-17T18:44:19.938Z,21.73
2018-12-17T18:48:24.762Z,20.73
2018-12-17T18:52:48.486Z,21.23
2018-12-17T18:56:53.521Z,20.87
2018-12-17T19:01:17.226Z,20.53
2018-12-17T19:05:22.041Z,19.47
2018-12-17T19:09:26.988Z,20.57
2018-12-17T19:13:31.992Z,19.80
2018-12-17T19:17:36.840Z,19.67
2018-12-17T19:21:42.055Z,18.90
2018-12-17T19:25:47.005Z,18.57
2018-12-17T19:29:51.903Z,18.90
2018-12-17T19:33:56.844Z,20.40
2018-12-17T19:38:01.739Z,17.37
2018-12-17T19:42:06.599Z,18.60
2018-12-17T19:46:11.610Z,17.40
2018-12-17T19:50:16.562Z,18.57
2018-12-17T19:54:21.669Z,18.00
2018-12-17T19:58:26.688Z,17.63
2018-12-17T20:02:31.601Z,18.47
2018-12-17T20:06:36.507Z,18.80
2018-12-17T20:10:41.403Z,20.23
2018-12-17T20:14:46.360Z,19.60
2018-12-17T20:18:51.329Z,17.53
2018-12-17T20:22:56.210Z,17.63
2018-12-17T20:27:01.117Z,16.43
2018-12-17T20:31:06.065Z,15.07
2018-12-17T20:35:11.147Z,15.70
2018-12-17T20:39:16.097Z,14.57
2018-12-17T20:43:21.034Z,15.00
2018-12-17T20:47:26.006Z,14.50
2018-12-17T20:51:31.333Z,14.63
2018-12-17T20:55:36.298Z,14.30
2018-12-17T20:59:41.280Z,13.77
2018-12-17T21:03:46.190Z,14.43
2018-12-17T21:07:51.110Z,14.03
2018-12-17T21:11:55.990Z,13.77
2018-12-17T21:16:00.942Z,13.70
2018-12-17T21:20:05.961Z,14.03
2018-12-17T21:24:13.838Z,13.10
2018-12-17T21:28:18.662Z,12.80
2018-12-17T21:32:23.791Z,13.97
2018-12-17T21:36:28.727Z,11.83
2018-12-17T21:40:33.697Z,12.57
2018-12-17T21:44:38.547Z,12.70
2018-12-17T21:48:43.643Z,12.77
2018-12-17T21:52:48.632Z,12.73
2018-12-17T21:56:53.517Z,11.97
2018-12-17T22:00:58.495Z,12.40
2018-12-17T22:05:03.412Z,13.73
2018-12-17T22:09:09.156Z,11.40
2018-12-17T22:13:14.097Z,12.10
2018-12-17T22:17:19.004Z,12.73
2018-12-17T22:21:24.968Z,11.73
2018-12-17T22:25:29.838Z,11.83
2018-12-17T22:29:34.811Z,11.30
2018-12-17T22:33:39.784Z,11.57
2018-12-17T22:37:44.772Z,11.33
2018-12-17T22:41:49.723Z,11.87
2018-12-17T22:45:54.715Z,11.83
2018-12-17T22:49:59.695Z,11.20
2018-12-17T22:54:04.646Z,11.37
2018-12-17T22:58:09.748Z,10.87
2018-12-17T23:02:14.706Z,11.47
2018-12-17T23:06:19.665Z,10.67
2018-12-17T23:10:59.688Z,10.53
2018-12-17T23:15:39.748Z,11.40
2018-12-17T23:19:47.629Z,10.37
2018-12-17T23:23:52.669Z,10.30
2018-12-17T23:27:57.893Z,11.03
2018-12-17T23:32:02.926Z,11.87
2018-12-17T23:36:07.919Z,12.73
2018-12-17T23:40:12.853Z,11.37
2018-12-17T23:44:17.839Z,10.43
2018-12-17T23:48:22.813Z,12.20
2018-12-17T23:52:27.732Z,10.23
2018-12-17T23:56:32.655Z,12.97
